createdAt,value
2023-01-13T11:10:38.674Z,101501.71
2023-01-13T11:13:32.837Z,101502.16
2023-01-13T11:16:13.448Z,101499.84
2023-01-13T11:19:12.389Z,101495.67
2023-01-13T11:21:44.151Z,101497.52
2023-01-13T11:24:16.653Z,101495.08
2023-01-13T11:27:10.222Z,101495.45
2023-01-13T11:29:39.508Z,101491.26
2023-01-13T11:32:18.999Z,101490.07
2023-01-13T11:34:48.678Z,101489.95
2023-01-13T11:37:20.427Z,101490.75
2023-01-13T11:40:10.903Z,101488.99
2023-01-13T11:42:47.356Z,101487.21
2023-01-13T11:45:24.742Z,101493.17
2023-01-13T11:47:52.920Z,101491.52
2023-01-13T11:50:48.536Z,101492.48
2023-01-13T11:53:49.686Z,101487.30
2023-01-13T11:56:33.423Z,101490.56
2023-01-13T11:59:28.527Z,101493.41
2023-01-13T12:02:11.221Z,101492.14
2023-01-13T12:04:56.147Z,101490.36
2023-01-13T12:07:51.932Z,101491.82
2023-01-13T12:10:37.928Z,101489.89
2023-01-13T12:13:30.362Z,101488.98
2023-01-13T12:16:06.696Z,101492.52
2023-01-13T12:18:55.921Z,101498.84
2023-01-13T12:21:42.807Z,101500.58
2023-01-13T12:24:30.335Z,101500.77
2023-01-13T12:26:59.529Z,101505.08
2023-01-13T12:29:30.575Z,101509.67
2023-01-13T12:31:57.769Z,101511.17
2023-01-13T12:34:37.566Z,101506.92
2023-01-13T12:37:10.660Z,101506.89
2023-01-13T12:39:43.742Z,101513.54
2023-01-13T12:42:36.208Z,101511.34
2023-01-13T12:45:12.660Z,101518.34
2023-01-13T12:47:44.421Z,101520.08
2023-01-13T12:50:24.059Z,101521.28
2023-01-13T12:52:54.906Z,101516.14
2023-01-13T12:55:22.664Z,101514.63
2023-01-13T12:58:00.178Z,101513.95
2023-01-13T13:00:44.213Z,101515.18
2023-01-13T13:03:11.347Z,101518.90
2023-01-13T13:06:09.936Z,101515.49
2023-01-13T13:09:03.436Z,101518.79
2023-01-13T13:11:56.051Z,101517.75
2023-01-13T13:14:49.780Z,101513.00
2023-01-13T13:17:20.137Z,101510.58
2023-01-13T13:19:48.843Z,101507.95
2023-01-13T13:22:38.099Z,101506.70
2023-01-13T13:25:05.346Z,101510.79
2023-01-13T13:27:38.662Z,101512.34
2023-01-13T13:30:13.601Z,101513.07
2023-01-13T13:32:50.047Z,101516.60
2023-01-13T13:35:35.721Z,101518.81
2023-01-13T13:38:46.217Z,101516.06
2023-01-13T13:41:44.290Z,101514.46
2023-01-13T13:44:36.212Z,101515.39
2023-01-13T13:47:04.116Z,101516.97
2023-01-13T13:49:40.423Z,101516.19
2023-01-13T13:52:27.559Z,101515.06
2023-01-13T13:54:57.438Z,101517.38
2023-01-13T13:57:33.057Z,101518.48
2023-01-13T14:00:00.464Z,101520.75
2023-01-13T14:02:32.620Z,101521.98
2023-01-13T14:05:20.805Z,101519.34
2023-01-13T14:07:49.965Z,101521.58
2023-01-13T14:10:24.986Z,101520.77
2023-01-13T14:12:53.231Z,101522.25
2023-01-13T14:15:31.513Z,101525.46
2023-01-13T14:18:00.960Z,101524.40
2023-01-13T14:20:29.418Z,101532.01
2023-01-13T14:23:01.597Z,101530.23
2023-01-13T14:25:29.552Z,101537.38
2023-01-13T14:27:57.114Z,101537.23
2023-01-13T14:30:24.972Z,101541.64
2023-01-13T14:32:52.115Z,101543.56
2023-01-13T14:35:19.267Z,101545.25
2023-01-13T14:37:49.155Z,101545.86
2023-01-13T14:40:39.773Z,101547.86
2023-01-13T14:43:12.411Z,101551.15
2023-01-13T14:45:42.891Z,101552.58
2023-01-13T14:48:10.226Z,101552.25
2023-01-13T14:50:38.481Z,101552.42
2023-01-13T14:53:47.190Z,101546.64
2023-01-13T14:56:55.448Z,101546.20
2023-01-13T14:59:43.081Z,101544.45
2023-01-13T15:02:25.532Z,101543.02
2023-01-13T15:04:58.878Z,101543.55
2023-01-13T15:07:32.353Z,101541.20
2023-01-13T15:10:01.347Z,101542.42
2023-01-13T15:12:39.545Z,101540.83
2023-01-13T15:15:19.949Z,101537.80
2023-01-13T15:17:47.280Z,101538.35
2023-01-13T15:20:19.555Z,101540.54
2023-01-13T15:22:47.522Z,101540.84
2023-01-13T15:25:15.286Z,101542.11
2023-01-13T15:27:43.931Z,101538.79
2023-01-13T15:30:15.917Z,101541.34
2023-01-13T15:32:43.495Z,101540.54
2023-01-13T15:35:15.147Z,101541.90
2023-01-13T15:37:43.214Z,101543.27
2023-01-13T15:40:30.330Z,101546.19
2023-01-13T15:43:16.535Z,101548.14
2023-01-13T15:46:02.316Z,101546.50
2023-01-13T15:48:31.099Z,101547.06
2023-01-13T15:50:58.356Z,101545.90
2023-01-13T15:53:26.839Z,101543.65
2023-01-13T15:55:55.932Z,101548.45
2023-01-13T15:58:28.087Z,101547.09
2023-01-13T16:00:55.914Z,101551.23
2023-01-13T16:03:23.317Z,101549.31
2023-01-13T16:05:50.572Z,101551.20
2023-01-13T16:08:20.074Z,101547.43
2023-01-13T16:10:47.346Z,101544.73
2023-01-13T16:13:15.103Z,101544.77
2023-01-13T16:15:43.993Z,101544.59
2023-01-13T16:18:16.411Z,101548.55
2023-01-13T16:20:44.140Z,101550.14
2023-01-13T16:23:12.318Z,101550.02
2023-01-13T16:25:39.973Z,101550.69
2023-01-13T16:28:07.412Z,101552.51
2023-01-13T16:30:36.527Z,101554.77
2023-01-13T16:33:04.099Z,101554.16
2023-01-13T16:35:35.659Z,101559.02
2023-01-13T16:38:14.909Z,101552.60
2023-01-13T16:40:42.287Z,101553.91
2023-01-13T16:43:11.758Z,101550.92
2023-01-13T16:45:39.750Z,101548.34
2023-01-13T16:48:07.102Z,101551.94
2023-01-13T16:50:41.636Z,101550.29
2023-01-13T16:53:12.056Z,101547.88
2023-01-13T16:55:43.721Z,101542.66
2023-01-13T16:58:19.164Z,101545.09
2023-01-13T17:00:51.930Z,101542.23
2023-01-13T17:03:19.148Z,101545.87
2023-01-13T17:05:49.932Z,101541.02
2023-01-13T17:08:18.320Z,101534.84
2023-01-13T17:10:46.782Z,101538.45
2023-01-13T17:13:16.813Z,101539.16
2023-01-13T17:15:45.606Z,101534.70
2023-01-13T17:18:13.789Z,101532.35
2023-01-13T17:20:41.632Z,101534.20
2023-01-13T17:23:08.897Z,101537.84
2023-01-13T17:25:36.051Z,101537.79
2023-01-13T17:28:03.389Z,101533.14
2023-01-13T17:30:31.054Z,101531.55
2023-01-13T17:32:59.034Z,101530.10
2023-01-13T17:35:26.574Z,101529.64
2023-01-13T17:37:54.339Z,101531.91
2023-01-13T17:40:21.719Z,101527.45
2023-01-13T17:42:49.251Z,101528.03
2023-01-13T17:45:17.324Z,101527.00
2023-01-13T17:47:47.957Z,101525.88
2023-01-13T17:50:17.325Z,101527.16
2023-01-13T17:52:44.508Z,101525.22
2023-01-13T17:55:11.858Z,101524.24
2023-01-13T17:57:39.074Z,101531.20
2023-01-13T18:00:07.389Z,101534.95
2023-01-13T18:02:39.495Z,101532.60
2023-01-13T18:05:07.127Z,101528.77
2023-01-13T18:07:34.167Z,101532.38
2023-01-13T18:10:01.455Z,101531.34
2023-01-13T18:12:28.764Z,101531.65
2023-01-13T18:14:56.011Z,101531.90
2023-01-13T18:17:23.185Z,101528.92
2023-01-13T18:20:08.958Z,101526.16
2023-01-13T18:22:55.045Z,101522.79
2023-01-13T18:25:41.041Z,101525.86
2023-01-13T18:28:08.224Z,101528.31
2023-01-13T18:30:35.467Z,101524.35
2023-01-13T18:33:02.792Z,101526.03
2023-01-13T18:35:30.550Z,101522.09
2023-01-13T18:37:57.801Z,101518.86
2023-01-13T18:40:24.962Z,101517.65
2023-01-13T18:42:52.313Z,101515.46
2023-01-13T18:45:30.000Z,101515.98
2023-01-13T18:47:58.992Z,101509.20
2023-01-13T18:50:27.431Z,101510.33
2023-01-13T18:52:54.623Z,101507.00
2023-01-13T18:55:21.989Z,101509.17
2023-01-13T18:57:49.251Z,101516.86
2023-01-13T19:00:19.320Z,101515.79
2023-01-13T19:02:47.898Z,101514.83
2023-01-13T19:05:15.182Z,101516.27
2023-01-13T19:07:46.489Z,101518.09
2023-01-13T19:10:13.684Z,101518.33
2023-01-13T19:12:40.955Z,101517.85
2023-01-13T19:15:09.314Z,101518.80
2023-01-13T19:17:36.461Z,101519.76
2023-01-13T19:20:05.352Z,101518.55
2023-01-13T19:22:33.851Z,101521.56
2023-01-13T19:25:01.709Z,101521.29
2023-01-13T19:27:29.054Z,101524.08
2023-01-13T19:30:03.991Z,101520.33
2023-01-13T19:32:32.824Z,101523.10
2023-01-13T19:35:00.140Z,101529.29
2023-01-13T19:37:31.785Z,101528.94
2023-01-13T19:39:59.679Z,101529.09
2023-01-13T19:42:46.385Z,101522.91
2023-01-13T19:45:31.337Z,101525.00
2023-01-13T19:48:00.600Z,101527.52
2023-01-13T19:50:27.883Z,101524.09
2023-01-13T19:52:55.079Z,101524.79
2023-01-13T19:55:23.518Z,101522.45
2023-01-13T19:57:50.972Z,101522.50
2023-01-13T20:00:21.074Z,101519.09
2023-01-13T20:02:49.856Z,101522.42
2023-01-13T20:05:22.876Z,101515.84
2023-01-13T20:07:50.418Z,101518.93
2023-01-13T20:10:21.061Z,101519.11
2023-01-13T20:12:49.038Z,101520.71
2023-01-13T20:15:16.443Z,101514.44
2023-01-13T20:17:43.730Z,101514.89
2023-01-13T20:20:11.561Z,101514.05
2023-01-13T20:22:39.468Z,101508.86
2023-01-13T20:25:07.075Z,101511.06
2023-01-13T20:27:34.257Z,101503.61
2023-01-13T20:30:01.510Z,101508.17
2023-01-13T20:32:29.223Z,101506.23
2023-01-13T20:34:56.409Z,101499.73
2023-01-13T20:37:23.719Z,101501.96
2023-01-13T20:39:50.954Z,101502.70
2023-01-13T20:42:30.114Z,101500.50
2023-01-13T20:44:58.407Z,101495.81
2023-01-13T20:47:29.137Z,101494.12
2023-01-13T20:49:56.656Z,101495.27
2023-01-13T20:52:23.756Z,101491.60
2023-01-13T20:54:50.939Z,101492.01
2023-01-13T20:57:18.157Z,101491.50
2023-01-13T20:59:45.491Z,101492.05
2023-01-13T21:02:14.055Z,101494.05
2023-01-13T21:04:41.119Z,101490.09
2023-01-13T21:07:08.285Z,101492.09
2023-01-13T21:09:35.595Z,101494.41
2023-01-13T21:12:21.273Z,101493.21
2023-01-13T21:15:06.908Z,101492.00
2023-01-13T21:17:52.548Z,101488.43
2023-01-13T21:20:19.724Z,101487.45
2023-01-13T21:22:47.627Z,101489.27
2023-01-13T21:25:15.120Z,101487.42
2023-01-13T21:27:44.068Z,101485.45
2023-01-13T21:30:15.144Z,101489.34
2023-01-13T21:32:42.600Z,101491.02
2023-01-13T21:35:10.014Z,101485.50
2023-01-13T21:37:38.067Z,101485.48
2023-01-13T21:40:06.612Z,101483.31
2023-01-13T21:42:52.352Z,101486.28
2023-01-13T21:45:38.015Z,101484.36
2023-01-13T21:48:05.451Z,101482.03
2023-01-13T21:50:32.463Z,101482.67
2023-01-13T21:52:59.882Z,101479.96
2023-01-13T21:55:29.900Z,101477.42
2023-01-13T21:58:02.983Z,101482.66
2023-01-13T22:00:30.946Z,101480.06
2023-01-13T22:02:58.849Z,101475.78
2023-01-13T22:05:26.199Z,101478.91
2023-01-13T22:07:53.369Z,101477.29
2023-01-13T22:10:22.370Z,101477.13
2023-01-13T22:12:55.355Z,101477.39
2023-01-13T22:15:22.876Z,101482.13
2023-01-13T22:17:53.578Z,101481.68
2023-01-13T22:20:21.085Z,101480.75
2023-01-13T22:22:48.675Z,101480.80
2023-01-13T22:25:16.045Z,101477.55
2023-01-13T22:27:44.626Z,101478.46
2023-01-13T22:30:14.116Z,101474.92
2023-01-13T22:32:41.298Z,101475.27
2023-01-13T22:35:09.367Z,101472.41
2023-01-13T22:37:36.515Z,101472.42
2023-01-13T22:40:04.873Z,101468.33
2023-01-13T22:42:31.828Z,101470.49
2023-01-13T22:44:58.832Z,101468.70
2023-01-13T22:47:25.918Z,101469.71
2023-01-13T22:49:52.939Z,101468.17
2023-01-13T22:52:20.020Z,101464.39
2023-01-13T22:54:47.144Z,101465.25
2023-01-13T22:57:14.392Z,101463.39
2023-01-13T22:59:41.386Z,101463.59
2023-01-13T23:02:08.352Z,101460.88
2023-01-13T23:04:35.492Z,101459.61
2023-01-13T23:07:02.560Z,101466.30
2023-01-13T23:09:30.160Z,101464.34
2023-01-13T23:11:58.377Z,101464.21
2023-01-13T23:14:25.424Z,101465.13
2023-01-13T23:16:52.691Z,101463.06
2023-01-13T23:19:19.782Z,101461.33
2023-01-13T23:21:46.849Z,101464.00
2023-01-13T23:24:13.952Z,101463.98
2023-01-13T23:26:41.021Z,101463.63
2023-01-13T23:29:09.266Z,101464.85
2023-01-13T23:31:36.298Z,101461.81
2023-01-13T23:34:03.319Z,101465.80
2023-01-13T23:36:30.357Z,101464.94
2023-01-13T23:38:58.657Z,101464.20
2023-01-13T23:41:26.193Z,101467.18
2023-01-13T23:43:57.606Z,101473.17
2023-01-13T23:46:24.975Z,101468.05
2023-01-13T23:48:52.237Z,101471.58
2023-01-13T23:51:21.428Z,101471.98
2023-01-13T23:53:49.145Z,101472.95
2023-01-13T23:56:17.867Z,101471.09
2023-01-13T23:58:45.165Z,101477.27
